Time;durP1;ratioP1;P1;durP2;ratioP2;P2;SDS_P1;SDS_P2;PMS_P1;PMS_P2;Temp;Humidity;BMP_temperature;BMP_pressure;BME280_temperature;BME280_humidity;BME280_pressure;Samples;Min_cycle;Max_cycle;Signal;HPM_P1;HPM_P2
2023/05/01 00:00:31;;;;;;;10.95;6.57;;;;;;;11.76;91.84;100614.25;5107024;28;20039;-67
2023/05/01 00:02:56;;;;;;;8.55;6.70;;;;;;;11.65;91.90;100611.69;5107963;28;20028;-68
2023/05/01 00:05:22;;;;;;;10.05;6.90;;;;;;;11.58;92.70;100605.97;5109623;28;20035;-68
2023/05/01 00:07:47;;;;;;;9.50;5.88;;;;;;;11.57;92.81;100621.22;5110074;27;20020;-68
2023/05/01 00:10:13;;;;;;;9.38;6.43;;;;;;;11.51;93.19;100615.53;5110595;28;20598;-67
2023/05/01 00:12:38;;;;;;;10.50;7.32;;;;;;;11.41;93.80;100607.41;5111335;28;20028;-67
2023/05/01 00:15:05;;;;;;;9.68;6.90;;;;;;;11.35;93.64;100607.94;5110511;28;20073;-67
2023/05/01 00:17:31;;;;;;;9.63;7.22;;;;;;;11.24;93.76;100597.31;5109888;28;20042;-67
2023/05/01 00:19:56;;;;;;;9.55;7.45;;;;;;;11.30;93.42;100615.56;5110940;28;20015;-67
2023/05/01 00:22:22;;;;;;;10.70;7.22;;;;;;;11.23;94.20;100618.91;5110829;28;20077;-67
2023/05/01 00:24:48;;;;;;;11.05;7.28;;;;;;;11.17;94.56;100622.13;5110850;28;20032;-67
2023/05/01 00:27:14;;;;;;;9.80;7.15;;;;;;;11.05;95.12;100610.59;5110613;28;20028;-67
2023/05/01 00:29:40;;;;;;;9.07;7.72;;;;;;;11.06;95.30;100623.00;5109280;28;20042;-67
2023/05/01 00:32:06;;;;;;;9.30;7.20;;;;;;;11.02;95.01;100620.72;5110603;28;20069;-67
2023/05/01 00:34:31;;;;;;;9.60;6.72;;;;;;;10.90;95.25;100609.19;5110686;28;20035;-67
2023/05/01 00:36:57;;;;;;;14.20;7.25;;;;;;;10.94;95.43;100620.53;5110718;28;20076;-67
2023/05/01 00:39:23;;;;;;;9.43;6.97;;;;;;;10.87;95.78;100614.81;5110448;28;20027;-67
2023/05/01 00:41:48;;;;;;;9.43;6.88;;;;;;;10.77;95.51;100610.38;5110727;28;20460;-67
2023/05/01 00:44:15;;;;;;;9.23;6.72;;;;;;;10.72;95.27;100613.44;5110258;28;20048;-67
2023/05/01 00:46:42;;;;;;;9.65;7.00;;;;;;;10.62;95.53;100601.78;5110519;28;20058;-67
2023/05/01 00:49:07;;;;;;;8.43;6.55;;;;;;;10.69;95.41;100627.09;5110299;28;20046;-67
2023/05/01 00:51:34;;;;;;;9.38;6.90;;;;;;;10.63;95.17;100624.06;5110617;28;20031;-67
2023/05/01 00:54:00;;;;;;;10.65;7.43;;;;;;;10.60;95.64;100629.69;5110109;28;20539;-68
2023/05/01 00:56:26;;;;;;;11.35;7.70;;;;;;;10.54;95.85;100624.81;5110299;28;20046;-67
2023/05/01 00:58:52;;;;;;;13.05;8.27;;;;;;;10.48;95.94;100628.03;5109997;28;20122;-67
2023/05/01 01:01:21;;;;;;;10.70;8.80;;;;;;;10.42;96.59;100624.00;5110188;28;20698;-66
2023/05/01 01:03:47;;;;;;;11.50;8.60;;;;;;;10.38;96.60;100625.25;5110190;28;20076;-67
2023/05/01 01:06:27;;;;;;;12.77;8.77;;;;;;;10.34;97.21;100617.56;5109606;28;20501;-67
2023/05/01 01:09:35;;;;;;;12.68;8.95;;;;;;;10.31;96.84;100623.19;5110049;28;20059;-67
2023/05/01 01:12:22;;;;;;;10.73;8.48;;;;;;;10.25;96.94;100624.53;5109210;28;20115;-67
2023/05/01 01:15:30;;;;;;;13.57;9.77;;;;;;;10.19;97.42;100622.38;5089655;28;20028;-61
2023/05/01 01:18:14;;;;;;;16.98;10.98;;;;;;;10.18;97.70;100634.06;5084564;28;20075;-61
2023/05/01 01:20:57;;;;;;;14.02;10.10;;;;;;;10.16;97.89;100630.66;5088512;28;20161;-61
2023/05/01 01:23:35;;;;;;;14.55;9.43;;;;;;;10.16;97.72;100640.53;5089611;28;20071;-63
2023/05/01 01:26:06;;;;;;;12.95;9.25;;;;;;;10.10;98.17;100631.19;5089564;28;20105;-61
2023/05/01 01:28:54;;;;;;;14.00;9.15;;;;;;;10.10;97.83;100625.81;5094446;28;20537;-61
2023/05/01 01:31:28;;;;;;;12.38;8.25;;;;;;;10.04;97.33;100614.69;5109835;28;20042;-61
2023/05/01 01:34:03;;;;;;;;;;;;;;;10.06;97.73;100621.66;5109056;28;20027;-61
2023/05/01 01:36:59;;;;;;;11.02;7.60;;;;;;;10.08;97.00;100619.72;5109776;28;19919;-61
2023/05/01 01:39:57;;;;;;;10.05;7.65;;;;;;;10.06;96.12;100629.69;5109497;28;20032;-62
2023/05/01 01:42:33;;;;;;;11.82;7.50;;;;;;;10.10;95.17;100633.84;5109715;28;20055;-62
2023/05/01 01:45:03;;;;;;;9.82;6.97;;;;;;;10.07;93.74;100630.56;5109734;28;20400;-61
2023/05/01 01:47:31;;;;;;;9.80;6.30;;;;;;;10.05;93.08;100622.59;5109587;28;20043;-62
2023/05/01 01:50:03;;;;;;;9.10;6.45;;;;;;;10.09;91.87;100628.63;5109366;28;20118;-62
2023/05/01 01:52:32;;;;;;;9.13;6.72;;;;;;;10.04;90.69;100615.56;5109268;28;20042;-62
2023/05/01 01:55:04;;;;;;;10.30;6.55;;;;;;;10.08;89.50;100622.41;5109434;28;20023;-61
2023/05/01 01:57:30;;;;;;;8.02;5.82;;;;;;;9.95;88.98;100608.25;5108569;28;20036;-61
2023/05/01 01:59:57;;;;;;;8.82;5.88;;;;;;;10.08;88.63;100627.75;5109447;28;20488;-61
2023/05/01 02:02:23;;;;;;;10.13;6.60;;;;;;;10.05;87.09;100617.25;5109349;28;20027;-61
2023/05/01 02:04:50;;;;;;;9.57;5.75;;;;;;;10.08;86.27;100625.06;5109566;28;20349;-61
2023/05/01 02:07:18;;;;;;;8.05;5.30;;;;;;;10.04;84.94;100615.56;5109491;28;20033;-62
2023/05/01 02:09:45;;;;;;;8.55;5.15;;;;;;;10.07;84.85;100627.88;5109394;28;20019;-61
2023/05/01 02:12:13;;;;;;;9.40;5.28;;;;;;;9.98;84.55;100612.50;5109385;28;20056;-60
2023/05/01 02:14:41;;;;;;;11.45;5.63;;;;;;;10.03;84.50;100631.75;5109441;28;20050;-61
2023/05/01 02:17:09;;;;;;;7.55;5.05;;;;;;;10.03;83.66;100623.72;5109144;28;20051;-61
2023/05/01 02:19:40;;;;;;;7.35;4.90;;;;;;;10.00;83.62;100611.41;5112136;28;20054;-61
2023/05/01 02:22:07;;;;;;;5.80;5.20;;;;;;;9.90;83.32;100613.13;5113126;28;20023;-61
2023/05/01 02:24:36;;;;;;;7.80;5.38;;;;;;;9.97;82.87;100614.34;5111353;28;20031;-67
2023/05/01 02:27:14;;;;;;;6.57;5.00;;;;;;;9.94;83.26;100621.78;5111717;28;20399;-66
2023/05/01 02:29:40;;;;;;;6.72;4.85;;;;;;;9.90;83.16;100621.16;5113350;27;20483;-67
2023/05/01 02:32:05;;;;;;;9.38;5.10;;;;;;;9.89;83.26;100626.63;5113048;28;20027;-66
2023/05/01 02:34:34;;;;;;;8.45;4.93;;;;;;;9.74;82.12;100606.44;5113279;28;20028;-67
2023/05/01 02:36:59;;;;;;;6.45;4.97;;;;;;;9.85;82.44;100630.53;5112220;28;20515;-67
2023/05/01 02:39:25;;;;;;;8.38;5.32;;;;;;;9.77;82.01;100622.28;5113122;28;20107;-67
2023/05/01 02:41:53;;;;;;;5.50;4.65;;;;;;;9.76;81.73;100629.44;5113245;28;20032;-67
2023/05/01 02:44:19;;;;;;;6.47;4.70;;;;;;;9.72;81.90;100630.66;5111646;28;20051;-67
2023/05/01 02:46:47;;;;;;;8.43;5.00;;;;;;;9.70;81.88;100639.81;5111725;28;20024;-67
2023/05/01 02:49:15;;;;;;;11.85;5.13;;;;;;;9.62;81.18;100621.66;5112077;28;20055;-67
2023/05/01 02:51:42;;;;;;;9.60;5.25;;;;;;;9.63;81.31;100636.75;5112481;28;20463;-67
2023/05/01 02:54:08;;;;;;;6.50;4.80;;;;;;;9.61;81.01;100633.31;5112167;27;20016;-67
2023/05/01 02:56:34;;;;;;;12.02;5.47;;;;;;;9.54;80.88;100631.28;5112471;28;20047;-67
2023/05/01 02:59:00;;;;;;;7.82;4.60;;;;;;;9.55;80.00;100635.66;5111829;28;20043;-67
2023/05/01 03:01:25;;;;;;;8.10;4.45;;;;;;;9.57;80.25;100647.94;5108829;28;20015;-67
2023/05/01 03:03:51;;;;;;;10.95;5.20;;;;;;;9.51;79.81;100642.22;5111931;28;20027;-67
2023/05/01 03:06:18;;;;;;;9.95;5.43;;;;;;;9.52;80.02;100646.59;5111877;28;20077;-67
2023/05/01 03:08:43;;;;;;;6.63;4.90;;;;;;;9.49;79.29;100653.06;5111659;28;20368;-67
2023/05/01 03:11:09;;;;;;;6.43;4.55;;;;;;;9.48;79.44;100664.72;5111312;28;20051;-67
2023/05/01 03:13:34;;;;;;;6.25;5.00;;;;;;;9.49;79.61;100662.91;5111622;28;20427;-67
2023/05/01 03:16:00;;;;;;;8.82;5.53;;;;;;;9.44;79.51;100655.22;5110822;28;20032;-67
2023/05/01 03:18:26;;;;;;;6.90;4.68;;;;;;;9.41;79.65;100662.66;5110813;28;20071;-67
2023/05/01 03:20:58;;;;;;;7.53;4.68;;;;;;;9.38;80.02;100657.53;5111492;28;20499;-66
2023/05/01 03:23:24;;;;;;;11.02;5.05;;;;;;;9.34;80.31;100664.94;5110657;28;20307;-67
2023/05/01 03:25:50;;;;;;;9.52;5.03;;;;;;;9.26;80.09;100662.03;5111559;28;20102;-62
2023/05/01 03:28:16;;;;;;;11.27;5.18;;;;;;;9.29;80.20;100669.81;5110790;28;20032;-61
2023/05/01 03:30:42;;;;;;;9.48;4.80;;;;;;;9.26;80.86;100670.03;5109438;28;20089;-62
2023/05/01 03:33:08;;;;;;;8.48;5.80;;;;;;;9.24;80.53;100662.13;5110499;28;20842;-62
2023/05/01 03:35:33;;;;;;;11.73;5.03;;;;;;;9.21;80.72;100666.84;5111683;28;20038;-62
2023/05/01 03:37:59;;;;;;;9.70;5.13;;;;;;;9.13;79.96;100654.06;5111537;28;20024;-62
2023/05/01 03:40:24;;;;;;;11.27;5.03;;;;;;;9.13;79.88;100661.25;5111334;27;20028;-62
2023/05/01 03:42:50;;;;;;;7.43;5.20;;;;;;;9.14;80.18;100668.31;5109889;28;20054;-62
2023/05/01 03:45:15;;;;;;;7.43;4.60;;;;;;;9.12;79.61;100667.56;5110933;28;20028;-61
2023/05/01 03:47:41;;;;;;;7.60;4.80;;;;;;;9.12;78.96;100665.75;5110033;28;20166;-62
2023/05/01 03:50:07;;;;;;;8.13;4.70;;;;;;;9.10;78.63;100664.16;5110217;28;20695;-61
2023/05/01 03:52:33;;;;;;;7.07;4.63;;;;;;;9.07;78.70;100664.38;5111810;28;20027;-62
2023/05/01 03:54:58;;;;;;;8.35;5.03;;;;;;;9.12;77.09;100672.91;5111509;28;20089;-61
2023/05/01 03:57:24;;;;;;;8.68;4.65;;;;;;;9.08;77.52;100666.09;5111158;28;20040;-62
2023/05/01 03:59:49;;;;;;;9.13;4.70;;;;;;;9.07;77.54;100667.06;5110855;28;20040;-61
2023/05/01 04:02:15;;;;;;;9.70;4.95;;;;;;;9.09;77.37;100665.97;5109645;28;20011;-62
2023/05/01 04:04:41;;;;;;;8.20;4.78;;;;;;;9.10;77.03;100665.00;5109907;28;20030;-62
2023/05/01 04:07:06;;;;;;;9.30;4.88;;;;;;;9.12;75.72;100656.84;5111263;28;20031;-62
2023/05/01 04:09:32;;;;;;;8.57;5.07;;;;;;;9.16;75.78;100667.19;5111734;28;20032;-63
2023/05/01 04:11:57;;;;;;;10.30;5.13;;;;;;;9.26;75.06;100664.69;5111623;28;20055;-62
2023/05/01 04:14:22;;;;;;;9.25;4.45;;;;;;;9.23;74.51;100651.53;5111253;28;20035;-61
2023/05/01 04:16:48;;;;;;;11.52;4.70;;;;;;;9.41;74.01;100670.69;5111013;28;20045;-61
2023/05/01 04:19:14;;;;;;;9.48;4.60;;;;;;;9.52;73.69;100676.91;5111128;28;20106;-62
2023/05/01 04:21:40;;;;;;;12.40;5.00;;;;;;;9.65;72.38;100671.44;5110822;28;20531;-61
2023/05/01 04:24:06;;;;;;;7.20;3.95;;;;;;;9.67;71.88;100665.00;5110912;28;20027;-61
2023/05/01 04:26:31;;;;;;;10.55;4.38;;;;;;;9.87;71.50;100674.97;5111392;28;20024;-62
2023/05/01 04:28:57;;;;;;;9.80;4.75;;;;;;;9.97;70.74;100675.97;5108910;28;20103;-62
2023/05/01 04:31:22;;;;;;;9.68;4.63;;;;;;;10.11;69.85;100685.59;5110508;28;20027;-62
2023/05/01 04:33:47;;;;;;;11.73;5.00;;;;;;;10.13;68.86;100662.22;5110979;27;20109;-61
2023/05/01 04:36:13;;;;;;;9.00;4.50;;;;;;;10.36;68.84;100688.88;5110467;28;20039;-61
2023/05/01 04:38:38;;;;;;;10.18;4.65;;;;;;;10.47;67.95;100680.81;5110744;28;20023;-62
2023/05/01 04:41:04;;;;;;;12.63;4.43;;;;;;;10.58;66.88;100672.72;5109587;28;20035;-62
2023/05/01 04:43:30;;;;;;;10.75;4.40;;;;;;;10.84;65.79;100684.00;5110532;28;20046;-62
2023/05/01 04:45:55;;;;;;;10.57;4.95;;;;;;;10.95;65.78;100678.59;5110372;28;20035;-61
2023/05/01 04:48:22;;;;;;;9.93;4.53;;;;;;;11.12;64.97;100684.25;5110275;28;20048;-61
2023/05/01 04:50:48;;;;;;;10.48;5.03;;;;;;;11.27;64.73;100674.91;5109023;28;20039;-61
2023/05/01 04:53:14;;;;;;;12.55;4.40;;;;;;;11.51;63.37;100682.66;5110426;28;20584;-61
2023/05/01 04:55:39;;;;;;;8.93;4.07;;;;;;;11.73;62.74;100687.94;5110300;28;20024;-61
2023/05/01 04:58:05;;;;;;;6.85;3.63;;;;;;;11.85;62.53;100672.56;5110347;28;20024;-64
2023/05/01 05:00:31;;;;;;;13.38;4.85;;;;;;;12.08;61.66;100674.09;5110191;28;20046;-61
2023/05/01 05:02:56;;;;;;;7.93;4.07;;;;;;;12.35;60.75;100680.56;5110055;27;20027;-60
2023/05/01 05:05:22;;;;;;;14.32;4.15;;;;;;;12.45;59.62;100661.78;5109727;27;20092;-61
2023/05/01 05:07:47;;;;;;;10.68;4.20;;;;;;;12.80;59.52;100686.34;5110219;28;20028;-61
2023/05/01 05:10:13;;;;;;;6.75;3.72;;;;;;;12.94;58.42;100678.72;5110011;28;20115;-61
2023/05/01 05:12:39;;;;;;;8.52;3.80;;;;;;;13.19;57.19;100694.31;5110262;28;20111;-62
2023/05/01 05:15:05;;;;;;;8.95;3.90;;;;;;;13.32;56.25;100675.19;5109487;28;20075;-61
2023/05/01 05:17:30;;;;;;;8.55;3.90;;;;;;;13.54;55.80;100682.94;5109501;28;20072;-61
2023/05/01 05:19:56;;;;;;;7.82;3.95;;;;;;;13.70;54.23;100688.56;5108641;28;20031;-61
2023/05/01 05:22:22;;;;;;;7.00;3.40;;;;;;;13.81;53.94;100693.81;5108228;28;20042;-61
2023/05/01 05:24:53;;;;;;;9.75;3.28;;;;;;;13.96;52.80;100689.63;5108634;28;20012;-61
2023/05/01 05:27:19;;;;;;;6.68;3.63;;;;;;;13.92;52.89;100666.66;5107007;28;20035;-61
2023/05/01 05:29:44;;;;;;;11.13;4.28;;;;;;;14.11;53.06;100687.31;5108578;27;20574;-61
2023/05/01 05:32:10;;;;;;;15.20;3.72;;;;;;;14.15;51.80;100673.38;5108141;28;20436;-61
2023/05/01 05:34:36;;;;;;;7.28;3.65;;;;;;;14.29;50.70;100693.66;5108721;28;20028;-61
2023/05/01 05:37:01;;;;;;;8.73;3.85;;;;;;;14.38;50.01;100690.06;5107948;28;20024;-61
2023/05/01 05:39:27;;;;;;;10.10;3.67;;;;;;;14.50;49.88;100686.16;5106595;28;20084;-61
2023/05/01 05:41:52;;;;;;;8.98;3.72;;;;;;;14.51;50.26;100683.31;5108243;28;20034;-61
2023/05/01 05:44:19;;;;;;;7.18;3.03;;;;;;;14.58;49.31;100683.56;5107683;28;20144;-61
2023/05/01 05:46:44;;;;;;;9.13;3.75;;;;;;;14.75;50.04;100705.19;5108693;28;20031;-61
2023/05/01 05:49:10;;;;;;;8.63;3.42;;;;;;;14.81;49.16;100695.63;5108634;28;20040;-61
2023/05/01 05:51:35;;;;;;;15.15;4.28;;;;;;;14.97;48.85;100699.38;5110168;28;20027;-61
2023/05/01 05:54:01;;;;;;;7.07;3.72;;;;;;;15.08;49.49;100701.81;5114113;28;20031;-61
2023/05/01 05:56:26;;;;;;;10.48;3.72;;;;;;;15.12;48.18;100692.41;5115251;28;20024;-61
2023/05/01 05:58:51;;;;;;;6.78;3.35;;;;;;;15.24;47.57;100701.13;5114739;28;20046;-61
2023/05/01 06:01:17;;;;;;;6.80;2.90;;;;;;;15.31;47.56;100694.09;5114841;28;20046;-61
2023/05/01 06:03:42;;;;;;;5.32;3.05;;;;;;;15.46;46.75;100701.53;5114887;28;20019;-61
2023/05/01 06:06:08;;;;;;;10.55;3.17;;;;;;;15.56;46.21;100698.72;5112248;28;20019;-61
2023/05/01 06:08:35;;;;;;;7.47;3.30;;;;;;;15.64;46.55;100696.09;5112163;28;20509;-61
2023/05/01 06:11:00;;;;;;;7.10;3.17;;;;;;;15.67;47.31;100685.81;5111510;28;20417;-61
2023/05/01 06:13:26;;;;;;;9.65;3.58;;;;;;;15.92;45.67;100700.34;5113945;28;20039;-61
2023/05/01 06:15:52;;;;;;;9.63;3.08;;;;;;;15.98;45.77;100702.41;5113843;28;20032;-62
2023/05/01 06:18:17;;;;;;;7.20;3.28;;;;;;;16.05;45.88;100699.94;5114277;28;20051;-60
2023/05/01 06:20:43;;;;;;;6.07;3.00;;;;;;;16.16;45.68;100700.50;5114300;28;20088;-61
2023/05/01 06:23:08;;;;;;;7.20;2.80;;;;;;;16.29;44.91;100694.63;5113918;28;20026;-60
2023/05/01 06:25:34;;;;;;;6.40;2.88;;;;;;;16.47;45.48;100698.97;5113731;28;20026;-61
2023/05/01 06:28:00;;;;;;;7.00;3.17;;;;;;;16.59;44.80;100697.69;5114057;28;20403;-61
2023/05/01 06:30:25;;;;;;;6.43;2.88;;;;;;;16.70;44.50;100691.94;5107243;28;20064;-61
2023/05/01 06:32:51;;;;;;;7.57;2.70;;;;;;;16.88;43.50;100698.09;5112021;28;20036;-60
2023/05/01 06:35:16;;;;;;;7.32;3.42;;;;;;;16.96;43.27;100700.00;5113340;28;20027;-61
2023/05/01 06:37:42;;;;;;;6.72;2.80;;;;;;;17.08;43.89;100695.94;5113017;28;20063;-61
2023/05/01 06:40:08;;;;;;;5.80;2.95;;;;;;;17.22;43.38;100687.16;5112750;28;20066;-61
2023/05/01 06:42:35;;;;;;;4.22;2.53;;;;;;;17.30;43.71;100682.59;5112676;28;20089;-61
2023/05/01 06:45:01;;;;;;;6.03;2.67;;;;;;;17.57;42.48;100690.41;5111235;28;20047;-61
2023/05/01 06:47:26;;;;;;;8.35;2.88;;;;;;;17.69;41.78;100691.75;5112668;28;20035;-61
2023/05/01 06:49:51;;;;;;;11.02;4.30;;;;;;;17.73;41.55;100684.09;5112480;28;20043;-61
2023/05/01 06:52:17;;;;;;;9.30;3.63;;;;;;;17.91;41.37;100687.47;5112501;28;20020;-62
2023/05/01 06:54:42;;;;;;;8.63;2.80;;;;;;;17.95;40.13;100692.41;5112418;28;20041;-62
2023/05/01 06:57:08;;;;;;;7.10;2.65;;;;;;;18.08;40.42;100700.00;5110944;28;20031;-61
2023/05/01 06:59:33;;;;;;;6.72;3.35;;;;;;;18.15;40.25;100708.31;5112311;28;20058;-62
2023/05/01 07:01:58;;;;;;;6.13;2.92;;;;;;;18.27;39.68;100710.47;5113335;28;20045;-62
2023/05/01 07:04:24;;;;;;;5.40;2.72;;;;;;;18.25;40.43;100696.19;5112198;28;20031;-61
2023/05/01 07:06:50;;;;;;;5.18;2.72;;;;;;;18.48;39.26;100701.75;5111921;28;20031;-61
2023/05/01 07:09:15;;;;;;;6.90;2.67;;;;;;;18.64;39.78;100697.09;5112558;27;20031;-62
2023/05/01 07:11:43;;;;;;;7.15;2.38;;;;;;;18.72;38.80;100690.78;5111403;28;20054;-61
2023/05/01 07:14:09;;;;;;;6.18;2.67;;;;;;;18.98;38.06;100711.19;5112915;28;20377;-61
2023/05/01 07:16:34;;;;;;;6.03;2.92;;;;;;;19.00;38.60;100706.44;5112864;28;20024;-62
2023/05/01 07:19:00;;;;;;;6.20;2.58;;;;;;;19.23;38.55;100711.88;5112534;28;20035;-61
2023/05/01 07:21:25;;;;;;;5.82;3.03;;;;;;;19.35;39.17;100707.75;5112730;28;20088;-62
2023/05/01 07:23:51;;;;;;;11.07;4.25;;;;;;;19.33;38.50;100683.44;5112498;28;20027;-61
2023/05/01 07:26:16;;;;;;;4.88;2.95;;;;;;;19.59;38.06;100711.13;5112241;28;20016;-61
2023/05/01 07:28:42;;;;;;;5.32;2.40;;;;;;;19.74;37.60;100711.16;5112384;28;20642;-61
2023/05/01 07:31:11;;;;;;;4.82;2.45;;;;;;;19.74;37.53;100709.28;5109653;27;20806;-63
2023/05/01 07:33:36;;;;;;;4.28;2.50;;;;;;;19.91;37.07;100699.94;5112629;27;20068;-62
2023/05/01 07:36:03;;;;;;;5.18;2.55;;;;;;;20.01;37.39;100713.28;5112176;28;20414;-61
2023/05/01 07:38:29;;;;;;;7.18;2.63;;;;;;;20.19;36.04;100702.91;5112692;28;20184;-61
2023/05/01 07:40:55;;;;;;;7.07;2.60;;;;;;;20.23;36.22;100687.88;5112031;28;20035;-61
2023/05/01 07:43:21;;;;;;;5.75;2.85;;;;;;;20.39;36.51;100720.38;5112091;28;20460;-61
2023/05/01 07:46:00;;;;;;;7.60;2.13;;;;;;;20.54;34.31;100701.31;5110717;28;20043;-61
2023/05/01 07:48:27;;;;;;;5.35;2.35;;;;;;;20.65;34.63;100714.44;5104492;28;20040;-63
2023/05/01 07:50:52;;;;;;;6.30;2.05;;;;;;;20.69;34.13;100710.28;5112235;28;20438;-61
2023/05/01 07:53:18;;;;;;;4.22;2.25;;;;;;;20.77;34.28;100705.63;5111678;27;20076;-61
2023/05/01 07:55:44;;;;;;;6.05;2.15;;;;;;;20.84;34.38;100706.53;5111993;28;20086;-62
2023/05/01 07:58:09;;;;;;;4.43;2.08;;;;;;;20.86;34.15;100700.88;5110988;28;20028;-61
2023/05/01 08:00:35;;;;;;;6.55;2.35;;;;;;;20.88;34.43;100694.19;5112026;28;20045;-61
2023/05/01 08:03:01;;;;;;;4.07;2.17;;;;;;;21.01;33.71;100696.25;5111837;28;20031;-61
2023/05/01 08:05:26;;;;;;;4.65;2.10;;;;;;;21.08;34.10;100702.63;5111264;28;20118;-62
2023/05/01 08:07:52;;;;;;;10.73;2.65;;;;;;;21.11;33.91;100681.28;5110845;28;20058;-61
2023/05/01 08:10:17;;;;;;;5.50;2.50;;;;;;;21.31;34.29;100690.50;5110992;28;20557;-62
2023/05/01 08:12:43;;;;;;;3.97;1.70;;;;;;;21.49;33.49;100692.78;5111036;28;20095;-62
2023/05/01 08:15:08;;;;;;;6.93;2.22;;;;;;;21.64;32.35;100697.09;5109213;28;20077;-61
2023/05/01 08:17:35;;;;;;;4.35;1.90;;;;;;;21.79;32.32;100717.03;5110545;28;20062;-61
2023/05/01 08:20:01;;;;;;;6.57;2.00;;;;;;;22.01;31.38;100705.03;5111411;28;20062;-62
2023/05/01 08:22:27;;;;;;;7.05;2.47;;;;;;;22.28;30.60;100692.41;5110462;28;20035;-61
2023/05/01 08:24:52;;;;;;;9.32;1.60;;;;;;;22.75;30.55;100702.53;5110755;28;20028;-61
2023/05/01 08:27:18;;;;;;;3.85;1.80;;;;;;;22.95;29.68;100689.81;5110769;28;20033;-61
2023/05/01 08:29:43;;;;;;;7.63;2.90;;;;;;;23.16;30.22;100701.44;5110541;28;20402;-61
2023/05/01 08:32:09;;;;;;;7.40;2.03;;;;;;;23.30;30.03;100692.22;5111007;28;20120;-61
2023/05/01 08:34:35;;;;;;;4.05;2.10;;;;;;;23.50;29.47;100692.25;5109787;28;20369;-60
2023/05/01 08:37:00;;;;;;;4.03;1.60;;;;;;;23.45;29.33;100683.84;5110881;28;20023;-61
2023/05/01 08:39:26;;;;;;;3.88;2.00;;;;;;;23.27;29.72;100678.09;5110705;28;20031;-62
2023/05/01 08:41:52;;;;;;;4.47;2.15;;;;;;;23.15;30.12;100677.00;5111121;28;20096;-62
2023/05/01 08:44:19;;;;;;;4.00;1.50;;;;;;;23.16;29.17;100685.03;5107097;28;20423;-61
2023/05/01 08:47:09;;;;;;;6.03;1.80;;;;;;;22.93;29.59;100686.41;5101867;28;20035;-61
2023/05/01 08:49:36;;;;;;;6.10;2.10;;;;;;;22.79;30.21;100696.47;5102045;28;20030;-61
2023/05/01 08:52:05;;;;;;;5.13;1.80;;;;;;;22.63;30.33;100696.81;5109615;28;20383;-61
2023/05/01 08:54:31;;;;;;;4.20;1.95;;;;;;;22.54;31.53;100699.94;5110167;28;20028;-61
2023/05/01 08:57:04;;;;;;;7.03;2.40;;;;;;;22.37;31.02;100682.16;5105448;28;20051;-61
2023/05/01 08:59:33;;;;;;;3.92;2.30;;;;;;;22.26;31.05;100684.41;5109729;28;20055;-62
2023/05/01 09:02:03;;;;;;;5.80;2.17;;;;;;;22.29;30.64;100700.38;5110011;28;20024;-62
2023/05/01 09:04:32;;;;;;;6.10;1.92;;;;;;;22.05;30.96;100683.59;5105379;27;20036;-61
2023/05/01 09:07:01;;;;;;;6.57;2.05;;;;;;;22.13;30.89;100688.94;5110400;28;20084;-62
2023/05/01 09:09:30;;;;;;;5.88;2.85;;;;;;;22.03;31.42;100694.72;5109299;28;20028;-61
2023/05/01 09:12:02;;;;;;;8.43;2.50;;;;;;;21.94;31.26;100695.94;5109977;28;20028;-62
2023/05/01 09:14:28;;;;;;;6.65;2.97;;;;;;;21.84;30.68;100695.44;5109419;28;20103;-61
2023/05/01 09:16:55;;;;;;;5.53;3.10;;;;;;;21.80;30.83;100693.31;5109836;28;20122;-61
2023/05/01 09:19:21;;;;;;;6.65;2.60;;;;;;;21.78;30.98;100688.03;5109684;28;20028;-62
2023/05/01 09:21:46;;;;;;;4.80;2.13;;;;;;;21.78;30.85;100692.66;5108510;28;20468;-62
2023/05/01 09:24:12;;;;;;;3.60;1.83;;;;;;;21.79;31.04;100695.19;5109771;28;20435;-62
2023/05/01 09:26:40;;;;;;;3.05;1.90;;;;;;;21.67;31.27;100665.88;5109972;28;20011;-62
2023/05/01 09:29:08;;;;;;;3.05;1.45;;;;;;;21.80;31.07;100685.13;5108686;28;20020;-62
2023/05/01 09:31:35;;;;;;;4.78;1.83;;;;;;;21.76;31.09;100683.78;5109857;28;20046;-62
2023/05/01 09:34:02;;;;;;;4.20;2.17;;;;;;;21.74;30.88;100674.97;5109746;28;20035;-62
2023/05/01 09:36:32;;;;;;;7.05;2.60;;;;;;;21.70;31.44;100671.75;5109767;28;20019;-62
2023/05/01 09:38:59;;;;;;;6.68;3.20;;;;;;;21.75;31.34;100684.84;5109676;28;20380;-62
2023/05/01 09:41:26;;;;;;;5.32;1.90;;;;;;;21.61;30.94;100667.47;5109638;28;20047;-64
2023/05/01 09:43:53;;;;;;;4.38;1.65;;;;;;;21.53;30.48;100653.97;5108955;28;20483;-61
2023/05/01 09:46:20;;;;;;;6.72;2.20;;;;;;;21.63;31.23;100667.28;5109356;28;20394;-62
2023/05/01 09:48:59;;;;;;;3.67;2.30;;;;;;;21.52;31.64;100640.53;5109482;28;20038;-62
2023/05/01 09:51:25;;;;;;;5.57;1.60;;;;;;;21.64;31.81;100663.53;5108933;28;20030;-62
2023/05/01 09:53:53;;;;;;;4.85;1.85;;;;;;;21.59;32.13;100660.53;5109437;28;20023;-61
2023/05/01 09:56:20;;;;;;;3.30;1.88;;;;;;;21.53;32.38;100643.06;5108948;28;20027;-62
2023/05/01 09:58:46;;;;;;;4.53;2.55;;;;;;;21.80;32.43;100660.53;5108077;28;20019;-62
2023/05/01 10:01:12;;;;;;;7.22;3.00;;;;;;;21.70;32.55;100660.00;5109065;28;20022;-62
2023/05/01 10:03:37;;;;;;;5.88;2.42;;;;;;;21.67;32.33;100654.94;5108626;28;20035;-62
2023/05/01 10:06:03;;;;;;;4.88;2.50;;;;;;;21.64;32.80;100674.44;5107851;28;20479;-62
2023/05/01 10:08:48;;;;;;;3.88;2.15;;;;;;;21.52;32.93;100657.75;5109569;28;20106;-63
2023/05/01 10:11:14;;;;;;;6.13;2.15;;;;;;;21.53;33.94;100658.56;5109085;28;20028;-62
2023/05/01 10:13:39;;;;;;;6.38;2.58;;;;;;;21.50;33.95;100654.38;5109349;28;20224;-61
2023/05/01 10:16:07;;;;;;;4.55;2.40;;;;;;;21.53;33.30;100651.25;5108980;28;20365;-68
2023/05/01 10:18:38;;;;;;;4.03;2.33;;;;;;;21.58;33.38;100656.97;5109167;28;20039;-68
2023/05/01 10:21:04;;;;;;;3.05;1.88;;;;;;;21.47;33.66;100646.56;5108904;28;20096;-68
2023/05/01 10:23:30;;;;;;;5.65;3.63;;;;;;;21.39;34.32;100637.69;5109025;28;20032;-68
2023/05/01 10:25:57;;;;;;;8.45;2.90;;;;;;;21.46;34.30;100641.31;5109581;28;20019;-67
2023/05/01 10:28:24;;;;;;;6.80;2.17;;;;;;;21.47;34.58;100645.75;5109789;28;20958;-67
2023/05/01 10:30:50;;;;;;;4.13;2.95;;;;;;;21.44;34.61;100640.69;5108487;28;20110;-68
2023/05/01 10:33:16;;;;;;;4.68;2.35;;;;;;;21.51;34.63;100644.31;5109253;28;20361;-68
2023/05/01 10:35:48;;;;;;;3.53;1.83;;;;;;;21.56;34.15;100647.28;5109086;28;20632;-68
2023/05/01 10:38:22;;;;;;;4.20;2.10;;;;;;;21.57;34.35;100641.63;5093039;28;20589;-62
2023/05/01 10:40:49;;;;;;;5.03;2.30;;;;;;;21.51;33.94;100622.47;5112486;28;20027;-62
2023/05/01 10:43:27;;;;;;;5.72;2.20;;;;;;;21.52;34.84;100629.59;5113216;28;20550;-62
2023/05/01 10:46:17;;;;;;;4.47;2.17;;;;;;;21.43;35.16;100609.78;5112878;28;20514;-61
2023/05/01 10:48:43;;;;;;;4.70;2.13;;;;;;;21.63;34.72;100623.59;5112265;28;20039;-62
2023/05/01 10:51:26;;;;;;;4.38;2.10;;;;;;;21.61;34.81;100623.78;5112087;28;20031;-62
2023/05/01 10:54:13;;;;;;;5.15;2.22;;;;;;;21.63;34.84;100620.84;5112788;28;20028;-62
2023/05/01 10:56:38;;;;;;;4.18;2.08;;;;;;;21.63;34.89;100626.31;5113095;28;20081;-61
2023/05/01 10:59:04;;;;;;;5.15;2.10;;;;;;;21.57;35.27;100616.22;5113014;28;20024;-62
2023/05/01 11:01:35;;;;;;;3.85;1.60;;;;;;;21.55;34.49;100602.75;5113077;27;20388;-61
2023/05/01 11:04:00;;;;;;;4.25;1.90;;;;;;;21.60;34.67;100615.81;5112977;28;20576;-61
2023/05/01 11:06:26;;;;;;;2.63;1.30;;;;;;;21.59;35.08;100612.25;5112956;28;20015;-62
2023/05/01 11:08:52;;;;;;;4.05;1.92;;;;;;;21.61;35.34;100614.78;5104849;28;20055;-61
2023/05/01 11:11:20;;;;;;;2.92;1.40;;;;;;;21.65;35.30;100603.25;5105169;28;20027;-62
2023/05/01 11:13:58;;;;;;;2.25;1.60;;;;;;;21.61;35.15;100588.28;5112490;28;20070;-61
2023/05/01 11:16:40;;;;;;;2.15;1.65;;;;;;;21.66;35.18;100585.81;5099329;28;20035;-61
2023/05/01 11:19:11;;;;;;;3.45;1.70;;;;;;;21.65;35.41;100594.22;5111331;28;20031;-68
2023/05/01 11:21:39;;;;;;;3.10;1.60;;;;;;;21.62;35.68;100579.09;5112653;28;20024;-68
2023/05/01 11:24:08;;;;;;;3.35;1.80;;;;;;;21.61;35.36;100582.84;5112247;28;20372;-68
2023/05/01 11:26:40;;;;;;;3.08;1.67;;;;;;;21.69;35.32;100595.50;5112666;28;20027;-68